Time;durP1;ratioP1;P1;durP2;ratioP2;P2;SDS_P1;SDS_P2;PMS_P1;PMS_P2;Temp;Humidity;BMP_temperature;BMP_pressure;BME280_temperature;BME280_humidity;BME280_pressure;Samples;Min_cycle;Max_cycle;Signal;HPM_P1;HPM_P2
2021/07/10 00:01:20;;;;;;;1.55;0.85;;;;;;;19.68;62.99;99860.84;5053548;28;20045;-69
2021/07/10 00:03:49;;;;;;;;;;;;;;;19.66;63.10;99857.47;5053899;28;20052;-69
2021/07/10 00:06:18;;;;;;;2.17;0.93;;;;;;;19.49;63.74;99858.94;5036368;28;20367;-70
2021/07/10 00:08:47;;;;;;;2.88;0.95;;;;;;;19.57;63.42;99857.78;5053527;28;20088;-70
2021/07/10 00:11:16;;;;;;;2.22;1.08;;;;;;;19.66;62.93;99860.06;5053681;28;20376;-70
2021/07/10 00:13:46;;;;;;;2.28;0.90;;;;;;;19.66;62.66;99854.88;5054252;28;20386;-70
2021/07/10 00:16:17;;;;;;;1.58;0.80;;;;;;;19.67;62.16;99853.16;5053669;28;20041;-70
2021/07/10 00:18:46;;;;;;;1.02;0.80;;;;;;;19.63;62.25;99847.22;5035609;28;20072;-70
2021/07/10 00:21:15;;;;;;;2.67;0.82;;;;;;;19.61;61.84;99841.25;5053669;28;20041;-70
2021/07/10 00:23:44;;;;;;;0.98;0.80;;;;;;;19.57;61.42;99834.50;5053244;28;20044;-69
2021/07/10 00:26:13;;;;;;;1.10;0.80;;;;;;;19.50;61.50;99843.38;5053907;28;20036;-70
2021/07/10 00:28:42;;;;;;;0.82;0.70;;;;;;;19.41;61.59;99838.50;5053533;28;20057;-70
2021/07/10 00:31:11;;;;;;;1.05;0.80;;;;;;;19.32;62.01;99838.78;5053255;28;20044;-70
2021/07/10 00:33:42;;;;;;;1.38;0.88;;;;;;;19.31;62.18;99852.63;5053185;28;20068;-69
2021/07/10 00:36:11;;;;;;;0.90;0.80;;;;;;;19.42;61.70;99853.13;5053184;28;20041;-69
2021/07/10 00:38:40;;;;;;;1.35;0.80;;;;;;;19.50;61.37;99858.06;5053448;28;20437;-70
2021/07/10 00:41:09;;;;;;;1.83;1.10;;;;;;;19.57;61.09;99854.34;5053329;28;20037;-70
2021/07/10 00:43:37;;;;;;;1.13;0.70;;;;;;;19.65;60.90;99853.19;5053484;28;20116;-70
2021/07/10 00:46:08;;;;;;;1.07;0.87;;;;;;;19.59;61.34;99858.59;5053071;28;20056;-69
2021/07/10 00:48:37;;;;;;;1.30;0.80;;;;;;;19.65;61.26;99850.59;5053077;28;20288;-70
2021/07/10 00:51:07;;;;;;;0.93;0.70;;;;;;;19.45;61.73;99865.13;5056906;28;20442;-70
2021/07/10 00:53:37;;;;;;;1.27;0.90;;;;;;;19.30;62.59;99862.13;5056868;28;20282;-70
2021/07/10 00:56:07;;;;;;;2.43;0.70;;;;;;;19.25;62.83;99852.81;5056848;28;20151;-70
2021/07/10 00:58:36;;;;;;;1.05;0.70;;;;;;;19.34;62.57;99868.03;5056765;28;20774;-69
2021/07/10 01:01:06;;;;;;;1.30;0.80;;;;;;;19.46;62.24;99867.66;5056663;28;20045;-70
2021/07/10 01:03:44;;;;;;;1.00;0.75;;;;;;;19.46;62.57;99857.28;5056985;28;20076;-69
2021/07/10 01:06:16;;;;;;;1.23;0.63;;;;;;;19.54;62.06;99860.47;5056999;28;20426;-70
2021/07/10 01:08:48;;;;;;;0.88;0.70;;;;;;;19.58;62.15;99864.66;5057187;28;20041;-70
2021/07/10 01:11:17;;;;;;;1.13;0.77;;;;;;;19.56;61.84;99858.69;5056839;28;20049;-70
2021/07/10 01:13:47;;;;;;;1.13;0.70;;;;;;;19.38;62.70;99864.50;5056795;28;20128;-69
2021/07/10 01:16:16;;;;;;;2.47;0.85;;;;;;;19.36;62.94;99874.06;5056475;28;20052;-69
2021/07/10 01:18:45;;;;;;;1.35;0.85;;;;;;;19.43;62.82;99875.53;5056743;28;20467;-69
2021/07/10 01:21:15;;;;;;;1.15;0.70;;;;;;;19.41;62.27;99872.16;5056503;28;20045;-69
2021/07/10 01:23:47;;;;;;;1.73;1.10;;;;;;;19.42;62.41;99873.00;5056359;28;20068;-69
2021/07/10 01:26:16;;;;;;;1.63;0.90;;;;;;;19.46;62.11;99872.81;5038465;28;20457;-69
2021/07/10 01:28:45;;;;;;;1.50;0.85;;;;;;;19.47;61.82;99874.53;5056349;28;20140;-70
2021/07/10 01:31:14;;;;;;;3.90;0.95;;;;;;;19.50;61.66;99884.81;5056192;28;20111;-69
2021/07/10 01:33:43;;;;;;;;;;;;;;;19.48;61.68;99881.41;5056592;28;20044;-69
2021/07/10 01:36:12;;;;;;;0.70;0.70;;;;;;;19.45;62.03;99875.47;5056119;28;20386;-70
2021/07/10 01:38:42;;;;;;;1.25;0.68;;;;;;;19.43;62.21;99878.13;5056077;28;20088;-70
2021/07/10 01:41:11;;;;;;;1.15;0.80;;;;;;;19.44;62.22;99876.38;5056061;28;20441;-69
2021/07/10 01:43:40;;;;;;;1.40;0.90;;;;;;;19.32;62.34;99873.28;5055978;28;20071;-69
2021/07/10 01:46:09;;;;;;;0.90;0.80;;;;;;;19.18;63.04;99882.38;5055924;28;20041;-69
2021/07/10 01:48:38;;;;;;;1.15;0.80;;;;;;;19.26;63.04;99881.25;5055872;28;20037;-69
2021/07/10 01:51:07;;;;;;;2.83;1.02;;;;;;;19.26;62.86;99881.25;5056326;28;20450;-69
2021/07/10 01:53:39;;;;;;;1.77;1.00;;;;;;;19.22;62.96;99884.81;5056073;28;20395;-69
2021/07/10 01:56:09;;;;;;;1.88;0.80;;;;;;;19.26;63.25;99890.75;5055758;28;20556;-69
2021/07/10 01:58:38;;;;;;;1.30;0.80;;;;;;;19.21;63.50;99888.31;5055743;28;20098;-70
2021/07/10 02:01:07;;;;;;;1.33;0.80;;;;;;;19.15;63.66;99882.47;5054818;28;20125;-70
2021/07/10 02:03:36;;;;;;;1.35;0.82;;;;;;;19.14;63.81;99885.97;5055476;28;20045;-70
2021/07/10 02:06:05;;;;;;;1.10;0.80;;;;;;;19.16;63.80;99879.00;5055497;28;20073;-69
2021/07/10 02:08:34;;;;;;;1.50;0.80;;;;;;;19.11;64.03;99878.31;5055827;28;20033;-69
2021/07/10 02:11:03;;;;;;;1.30;0.80;;;;;;;19.00;64.26;99875.22;5055677;28;20133;-70
2021/07/10 02:13:35;;;;;;;2.17;0.88;;;;;;;18.85;64.79;99879.13;5056034;28;20036;-70
2021/07/10 02:16:05;;;;;;;1.85;1.05;;;;;;;18.63;65.22;99878.94;5055391;28;20124;-70
2021/07/10 02:18:34;;;;;;;;;;;;;;;18.32;66.07;99877.28;5056326;28;20033;-69
2021/07/10 02:21:03;;;;;;;3.00;1.10;;;;;;;18.12;66.95;99880.41;5055124;28;20003;-69
2021/07/10 02:23:32;;;;;;;;;;;;;;;17.98;67.49;99882.53;5056010;28;20041;-69
2021/07/10 02:26:01;;;;;;;1.63;1.10;;;;;;;17.86;67.66;99873.41;5055487;28;19920;-69
2021/07/10 02:28:30;;;;;;;1.83;1.10;;;;;;;17.88;68.20;99871.63;5055208;28;20479;-69
2021/07/10 02:31:01;;;;;;;1.33;0.98;;;;;;;17.88;67.84;99875.94;5037225;28;20290;-69
2021/07/10 02:33:29;;;;;;;2.13;1.00;;;;;;;17.90;68.06;99875.00;5053931;28;20045;-69
2021/07/10 02:35:59;;;;;;;3.00;1.10;;;;;;;17.93;68.14;99874.06;5054960;28;20041;-70
2021/07/10 02:38:29;;;;;;;2.38;1.13;;;;;;;18.12;67.67;99880.41;5054973;28;20041;-69
2021/07/10 02:40:58;;;;;;;3.07;0.90;;;;;;;18.07;67.67;99877.09;5054980;28;20483;-69
2021/07/10 02:43:27;;;;;;;1.40;0.90;;;;;;;17.90;68.04;99879.34;5055125;28;20756;-69
2021/07/10 02:45:55;;;;;;;1.50;1.00;;;;;;;17.83;68.31;99880.38;5054846;28;20072;-70
2021/07/10 02:48:26;;;;;;;2.25;1.10;;;;;;;17.87;68.17;99874.25;5037000;28;20076;-69
2021/07/10 02:50:55;;;;;;;1.10;0.80;;;;;;;17.81;68.51;99879.56;5037283;28;20398;-69
2021/07/10 02:53:24;;;;;;;1.30;0.90;;;;;;;17.89;68.23;99875.91;5054615;28;20121;-69
2021/07/10 02:55:53;;;;;;;1.58;0.85;;;;;;;17.81;68.36;99875.25;5054579;28;20052;-69
2021/07/10 02:58:22;;;;;;;1.20;0.90;;;;;;;17.84;68.10;99870.00;5054880;28;20119;-69
2021/07/10 03:00:51;;;;;;;1.27;0.90;;;;;;;17.85;68.15;99865.69;5055321;28;20048;-70
2021/07/10 03:03:20;;;;;;;2.00;1.10;;;;;;;17.81;68.23;99864.91;5054445;28;20446;-69
2021/07/10 03:05:51;;;;;;;1.50;0.82;;;;;;;17.62;68.33;99855.97;5054724;28;20468;-70
2021/07/10 03:08:22;;;;;;;1.33;0.82;;;;;;;17.48;69.14;99864.94;5054383;28;20491;-69
2021/07/10 03:10:51;;;;;;;1.10;0.80;;;;;;;17.43;69.39;99860.75;5054913;28;20041;-69
2021/07/10 03:13:19;;;;;;;1.03;0.80;;;;;;;17.42;69.65;99861.63;5054081;28;20045;-69
2021/07/10 03:15:50;;;;;;;1.33;0.90;;;;;;;17.33;70.10;99864.44;5054282;28;20098;-69
2021/07/10 03:18:20;;;;;;;2.30;0.88;;;;;;;17.33;69.79;99859.28;5054278;28;20045;-69
2021/07/10 03:20:51;;;;;;;0.90;0.80;;;;;;;17.29;70.06;99857.66;5054114;28;20044;-69
2021/07/10 03:23:20;;;;;;;3.10;0.90;;;;;;;17.37;70.11;99853.16;5054500;28;20041;-69
2021/07/10 03:25:49;;;;;;;1.00;0.80;;;;;;;17.35;70.06;99864.38;5054287;28;20045;-69
2021/07/10 03:28:18;;;;;;;1.25;0.93;;;;;;;17.44;69.97;99859.84;5054012;28;20053;-69
2021/07/10 03:30:50;;;;;;;1.43;0.80;;;;;;;17.55;69.54;99861.34;5054112;28;20469;-69
2021/07/10 03:33:21;;;;;;;1.70;0.90;;;;;;;17.61;68.91;99863.78;5053940;28;20075;-69
2021/07/10 03:35:52;;;;;;;1.27;0.90;;;;;;;17.63;68.63;99860.25;5053895;28;20405;-69
2021/07/10 03:38:21;;;;;;;1.58;1.10;;;;;;;17.63;68.63;99864.56;5053814;28;20044;-69
2021/07/10 03:40:49;;;;;;;3.13;1.07;;;;;;;17.67;68.36;99861.00;5054103;28;20041;-69
2021/07/10 03:43:18;;;;;;;2.07;1.00;;;;;;;17.61;68.39;99866.34;5054033;28;20495;-69
2021/07/10 03:45:47;;;;;;;1.60;1.00;;;;;;;17.63;68.64;99859.41;5054327;28;20454;-70
2021/07/10 03:48:17;;;;;;;1.45;0.90;;;;;;;17.70;68.30;99860.94;5053230;28;20300;-71
2021/07/10 03:50:46;;;;;;;1.42;0.90;;;;;;;17.52;68.33;99866.56;5067866;28;20032;-72
2021/07/10 03:53:17;;;;;;;1.40;0.90;;;;;;;17.42;69.20;99866.78;5038062;28;20037;-71
2021/07/10 03:55:47;;;;;;;1.20;0.90;;;;;;;17.25;69.44;99861.19;5053665;28;20040;-71
2021/07/10 03:58:16;;;;;;;0.95;0.80;;;;;;;17.30;69.90;99861.06;5053415;28;20045;-71
2021/07/10 04:00:45;;;;;;;1.25;0.80;;;;;;;17.47;69.38;99868.41;5052280;28;20041;-70
2021/07/10 04:03:14;;;;;;;1.63;0.90;;;;;;;17.55;69.14;99866.50;5053448;28;20045;-70
2021/07/10 04:05:43;;;;;;;3.95;0.95;;;;;;;17.37;69.28;99868.63;5053487;28;20044;-70
2021/07/10 04:08:12;;;;;;;2.03;1.00;;;;;;;17.27;69.91;99866.34;5053923;28;20119;-69
2021/07/10 04:10:42;;;;;;;1.67;1.02;;;;;;;17.52;69.42;99858.81;5053644;28;20434;-69
2021/07/10 04:13:12;;;;;;;1.20;0.90;;;;;;;17.62;69.56;99873.19;5035804;28;20052;-69
2021/07/10 04:15:41;;;;;;;;;;;;;;;17.80;69.02;99857.22;5053782;28;20048;-69
2021/07/10 04:18:10;;;;;;;1.80;1.10;;;;;;;17.93;68.49;99866.31;5053324;28;20380;-70
2021/07/10 04:20:39;;;;;;;1.80;1.00;;;;;;;17.94;68.58;99868.88;5054335;28;20045;-69
2021/07/10 04:23:08;;;;;;;1.67;0.93;;;;;;;17.97;68.54;99867.94;5053367;28;20037;-70
2021/07/10 04:25:37;;;;;;;1.40;0.95;;;;;;;18.10;68.43;99871.88;5055857;28;20274;-70
2021/07/10 04:28:08;;;;;;;1.67;1.10;;;;;;;18.13;68.20;99876.97;5057272;28;20051;-70
2021/07/10 04:30:37;;;;;;;1.35;0.80;;;;;;;18.04;68.53;99882.38;5057262;28;20072;-69
2021/07/10 04:33:06;;;;;;;1.83;1.10;;;;;;;18.30;68.39;99869.56;5057609;28;20049;-69
2021/07/10 04:35:35;;;;;;;2.28;1.23;;;;;;;18.59;67.68;99877.34;5057492;28;20490;-69
2021/07/10 04:38:04;;;;;;;1.20;0.90;;;;;;;18.84;67.21;99876.56;5057480;28;20064;-70
2021/07/10 04:40:33;;;;;;;2.83;1.00;;;;;;;19.08;66.37;99875.81;5057225;28;20038;-69
2021/07/10 04:43:02;;;;;;;1.25;0.85;;;;;;;19.35;65.77;99882.69;5056978;28;20069;-69
2021/07/10 04:45:33;;;;;;;2.42;1.00;;;;;;;19.58;65.18;99877.59;5057062;28;20091;-69
2021/07/10 04:48:02;;;;;;;2.25;1.10;;;;;;;19.79;64.53;99881.22;5057078;28;20095;-69
2021/07/10 04:50:31;;;;;;;1.27;0.90;;;;;;;19.98;64.21;99883.09;5056867;28;20064;-69
2021/07/10 04:53:00;;;;;;;1.13;0.85;;;;;;;20.12;63.78;99876.56;5057341;28;20041;-69
2021/07/10 04:55:29;;;;;;;1.20;0.90;;;;;;;20.30;63.46;99883.72;5056908;28;20518;-69
2021/07/10 04:57:58;;;;;;;1.33;0.85;;;;;;;20.38;62.95;99886.84;5057447;28;20416;-69
2021/07/10 05:00:28;;;;;;;2.30;1.10;;;;;;;20.43;62.54;99879.75;5057117;28;20479;-69
2021/07/10 05:02:58;;;;;;;2.05;1.00;;;;;;;20.58;62.32;99881.75;5056705;28;20458;-70
2021/07/10 05:05:28;;;;;;;1.55;1.05;;;;;;;20.73;61.99;99886.38;5056729;28;20434;-69
2021/07/10 05:07:56;;;;;;;1.52;1.05;;;;;;;20.86;61.94;99884.97;5056523;28;20065;-69
2021/07/10 05:10:26;;;;;;;2.72;1.27;;;;;;;20.90;61.38;99876.16;5056591;28;20056;-69
2021/07/10 05:12:55;;;;;;;2.13;1.20;;;;;;;21.02;60.96;99886.03;5056489;28;20446;-69
2021/07/10 05:15:24;;;;;;;2.85;1.30;;;;;;;21.12;60.50;99877.03;5039364;28;20040;-69
2021/07/10 05:17:53;;;;;;;1.60;0.95;;;;;;;21.23;59.69;99880.06;5056400;28;20053;-71
2021/07/10 05:20:24;;;;;;;1.88;1.00;;;;;;;21.39;59.64;99877.66;5056446;28;20550;-68
2021/07/10 05:22:53;;;;;;;1.88;0.90;;;;;;;21.51;59.26;99873.69;5056317;28;20045;-69
2021/07/10 05:25:22;;;;;;;2.35;0.90;;;;;;;21.62;58.77;99884.50;5056644;28;20041;-70
2021/07/10 05:27:51;;;;;;;1.65;0.85;;;;;;;21.68;58.76;99884.22;5056635;28;20078;-69
2021/07/10 05:30:20;;;;;;;3.42;1.08;;;;;;;21.77;58.13;99878.63;5056217;28;20081;-69
2021/07/10 05:32:49;;;;;;;1.00;0.80;;;;;;;21.84;57.95;99882.63;5056365;28;20051;-70
2021/07/10 05:35:18;;;;;;;1.48;0.80;;;;;;;21.84;57.64;99887.84;5056151;28;20119;-70
2021/07/10 05:37:49;;;;;;;;;;;;;;;21.93;57.56;99887.50;5056764;28;20048;-69
2021/07/10 05:40:18;;;;;;;1.55;0.90;;;;;;;22.10;57.24;99895.38;5056582;28;19925;-69
2021/07/10 05:42:48;;;;;;;3.67;1.40;;;;;;;22.19;56.99;99900.19;5056060;28;20037;-70
2021/07/10 05:45:18;;;;;;;1.98;1.02;;;;;;;22.28;56.90;99894.56;5055913;28;20394;-69
2021/07/10 05:47:47;;;;;;;1.60;1.00;;;;;;;22.32;56.90;99898.72;5055881;28;20128;-69
2021/07/10 05:50:17;;;;;;;1.88;1.00;;;;;;;22.25;56.00;99893.84;5055842;28;20069;-69
2021/07/10 05:52:46;;;;;;;1.35;0.90;;;;;;;22.23;56.03;99898.28;5056180;28;20495;-69
2021/07/10 05:55:16;;;;;;;1.63;1.00;;;;;;;22.16;55.84;99902.06;5055742;28;20033;-69
2021/07/10 05:57:45;;;;;;;1.02;0.88;;;;;;;22.27;55.84;99903.25;5056401;28;20043;-68
2021/07/10 06:00:15;;;;;;;1.20;0.80;;;;;;;22.32;55.55;99898.72;5055665;28;20116;-69
2021/07/10 06:02:44;;;;;;;3.03;1.00;;;;;;;22.47;55.81;99895.41;5055408;28;20053;-69
2021/07/10 06:05:13;;;;;;;2.47;0.90;;;;;;;22.68;55.55;99893.59;5055546;28;20037;-69
2021/07/10 06:07:42;;;;;;;2.13;1.00;;;;;;;22.81;55.06;99899.09;5055344;28;20037;-69
2021/07/10 06:10:13;;;;;;;1.95;1.02;;;;;;;22.88;54.64;99898.72;5055473;28;20120;-69
2021/07/10 06:12:45;;;;;;;4.72;1.45;;;;;;;22.91;53.96;99895.13;5055396;28;20508;-69
2021/07/10 06:15:14;;;;;;;1.77;1.15;;;;;;;23.05;53.84;99898.78;5055303;28;20051;-71
2021/07/10 06:17:44;;;;;;;1.73;1.00;;;;;;;23.09;53.94;99899.44;5055619;28;20072;-69
2021/07/10 06:20:16;;;;;;;1.70;0.98;;;;;;;23.06;53.35;99900.44;5055280;28;20056;-70
2021/07/10 06:22:48;;;;;;;1.73;1.10;;;;;;;23.04;53.44;99906.63;5055202;28;20402;-70
2021/07/10 06:25:21;;;;;;;1.83;1.00;;;;;;;23.17;53.16;99903.38;5055335;28;20048;-69
2021/07/10 06:27:52;;;;;;;1.70;0.90;;;;;;;23.29;53.28;99912.38;5055514;28;20045;-70
2021/07/10 06:30:21;;;;;;;1.40;0.90;;;;;;;23.39;52.93;99915.38;5054998;28;20045;-70
2021/07/10 06:32:50;;;;;;;;;;;;;;;23.54;52.50;99917.25;5055402;28;20045;-69
2021/07/10 06:35:19;;;;;;;2.03;0.80;;;;;;;23.63;52.43;99912.41;5054902;28;20351;-69
2021/07/10 06:37:48;;;;;;;1.67;0.90;;;;;;;23.70;52.19;99903.38;5037095;28;20068;-70
2021/07/10 06:40:19;;;;;;;2.42;0.80;;;;;;;23.79;51.87;99908.09;5055490;28;20075;-69
2021/07/10 06:42:49;;;;;;;1.92;0.90;;;;;;;23.85;51.38;99909.56;5055023;28;20045;-70
2021/07/10 06:45:22;;;;;;;1.15;0.90;;;;;;;23.91;51.04;99909.22;5055091;28;20049;-69
2021/07/10 06:47:51;;;;;;;1.50;0.90;;;;;;;23.98;50.84;99908.84;5054149;28;20159;-69
2021/07/10 06:50:22;;;;;;;0.95;0.80;;;;;;;23.98;50.66;99897.56;5054910;28;20049;-69
2021/07/10 06:52:52;;;;;;;1.33;0.90;;;;;;;24.00;50.53;99912.22;5054677;28;20048;-69
2021/07/10 06:55:22;;;;;;;1.52;0.80;;;;;;;24.10;50.17;99906.53;5054747;28;20072;-70
2021/07/10 06:57:53;;;;;;;2.03;0.80;;;;;;;24.16;49.82;99911.44;5054580;28;20060;-72
2021/07/10 07:00:24;;;;;;;1.08;0.80;;;;;;;24.04;49.32;99906.84;5054456;28;20044;-70
2021/07/10 07:02:53;;;;;;;1.83;0.88;;;;;;;24.06;49.52;99910.22;5054399;28;20104;-68
2021/07/10 07:05:22;;;;;;;0.90;0.80;;;;;;;24.07;49.37;99909.34;5054685;28;20037;-70
2021/07/10 07:07:51;;;;;;;1.25;0.80;;;;;;;24.08;49.34;99911.00;5054168;28;20044;-70
2021/07/10 07:10:20;;;;;;;0.98;0.70;;;;;;;24.07;48.96;99912.75;5054297;28;20449;-69
2021/07/10 07:12:49;;;;;;;1.70;0.60;;;;;;;24.13;49.05;99912.44;5054241;28;20033;-69
2021/07/10 07:15:18;;;;;;;1.05;0.73;;;;;;;24.05;48.22;99918.94;5054195;28;20044;-72
2021/07/10 07:17:48;;;;;;;;;;;;;;;24.02;48.62;99910.34;5054529;28;20049;-69
2021/07/10 07:20:18;;;;;;;1.27;0.80;;;;;;;24.03;48.13;99911.22;5054122;28;20019;-68
2021/07/10 07:22:49;;;;;;;1.02;0.90;;;;;;;24.02;48.47;99910.34;5054296;28;20044;-68
2021/07/10 07:25:20;;;;;;;0.70;0.70;;;;;;;24.09;48.65;99904.88;5054145;28;20132;-70
2021/07/10 07:27:52;;;;;;;1.17;0.90;;;;;;;24.06;48.93;99905.84;5054024;28;20053;-68
2021/07/10 07:30:22;;;;;;;0.82;0.80;;;;;;;24.08;48.99;99897.94;5054051;28;20049;-69
2021/07/10 07:32:53;;;;;;;1.48;0.82;;;;;;;24.27;49.13;99898.66;5053818;28;20128;-68
2021/07/10 07:35:22;;;;;;;0.95;0.75;;;;;;;24.43;49.00;99894.31;5054276;28;20044;-69
2021/07/10 07:37:51;;;;;;;1.35;0.80;;;;;;;24.57;49.04;99897.03;5053742;28;20071;-69
2021/07/10 07:40:21;;;;;;;0.93;0.70;;;;;;;24.75;48.09;99890.78;5053761;28;20045;-69
2021/07/10 07:42:50;;;;;;;1.75;1.10;;;;;;;24.90;48.74;99897.81;5053663;28;20045;-69
2021/07/10 07:45:20;;;;;;;1.33;0.90;;;;;;;25.01;48.69;99886.75;5053708;28;20103;-70
2021/07/10 07:47:50;;;;;;;1.85;0.85;;;;;;;25.03;47.18;99880.50;5053415;28;20049;-70
2021/07/10 07:50:21;;;;;;;1.38;0.80;;;;;;;25.00;46.27;99891.13;5061665;28;20056;-68
2021/07/10 07:52:50;;;;;;;1.38;0.85;;;;;;;25.06;46.34;99879.50;5071147;28;20086;-69
2021/07/10 07:55:19;;;;;;;3.75;1.13;;;;;;;25.08;46.74;99873.25;5073442;28;20061;-69
2021/07/10 07:57:48;;;;;;;1.73;0.88;;;;;;;25.29;47.36;99876.41;5074161;28;20074;-68
2021/07/10 08:00:21;;;;;;;1.70;0.90;;;;;;;25.36;46.71;99879.53;5072635;28;20131;-68
2021/07/10 08:02:55;;;;;;;0.73;0.70;;;;;;;25.44;46.34;99874.66;5073562;28;20048;-69
2021/07/10 08:05:26;;;;;;;1.42;0.88;;;;;;;25.59;46.39;99879.88;5073467;28;20044;-68
2021/07/10 08:07:55;;;;;;;1.83;0.90;;;;;;;25.57;45.45;99871.28;5073739;28;20433;-70
2021/07/10 08:10:24;;;;;;;2.20;1.27;;;;;;;25.77;45.63;99872.72;5073749;28;20132;-70
2021/07/10 08:12:53;;;;;;;0.93;0.82;;;;;;;25.57;44.99;99875.69;5073421;28;20043;-69
2021/07/10 08:15:24;;;;;;;1.00;0.80;;;;;;;25.51;45.83;99876.03;5073420;28;20040;-70
2021/07/10 08:17:54;;;;;;;1.10;0.90;;;;;;;25.54;45.62;99881.06;5073671;28;20083;-70
2021/07/10 08:20:25;;;;;;;1.27;0.90;;;;;;;25.61;45.64;99875.41;5073229;28;20049;-70
2021/07/10 08:22:54;;;;;;;0.70;0.70;;;;;;;25.80;45.27;99872.53;5073710;28;20048;-69
2021/07/10 08:25:24;;;;;;;1.20;0.70;;;;;;;25.75;45.16;99871.94;5073482;28;20045;-69
2021/07/10 08:27:53;;;;;;;0.73;0.73;;;;;;;25.67;45.61;99880.28;5074250;28;20047;-71
2021/07/10 08:30:23;;;;;;;1.17;0.88;;;;;;;25.77;45.13;99878.78;5073017;28;20494;-69
2021/07/10 08:32:53;;;;;;;1.25;0.88;;;;;;;25.97;44.78;99874.97;5073256;28;20044;-69
2021/07/10 08:35:22;;;;;;;1.45;1.00;;;;;;;26.14;44.94;99873.97;5073448;28;20046;-70
2021/07/10 08:37:52;;;;;;;;;;;;;;;26.11;44.31;99876.78;5073544;28;20049;-69
2021/07/10 08:40:22;;;;;;;1.20;0.80;;;;;;;26.12;44.93;99873.22;5073479;28;19920;-70
2021/07/10 08:42:52;;;;;;;1.55;1.10;;;;;;;26.03;44.58;99874.63;5073382;28;20099;-70
2021/07/10 08:45:21;;;;;;;1.05;0.77;;;;;;;26.11;44.34;99869.75;5073015;28;20402;-69
2021/07/10 08:47:50;;;;;;;;;;;;;;;26.20;44.40;99873.63;5073520;28;20072;-70
2021/07/10 08:50:21;;;;;;;1.17;0.80;;;;;;;26.25;44.25;99869.75;5055400;28;19924;-69
2021/07/10 08:52:52;;;;;;;2.97;0.80;;;;;;;26.40;45.46;99874.03;5073043;28;20049;-69
2021/07/10 08:55:22;;;;;;;1.05;0.80;;;;;;;26.59;44.56;99869.34;5073029;28;20055;-69
2021/07/10 08:57:53;;;;;;;1.92;0.90;;;;;;;26.82;44.01;99859.19;5073156;28;20460;-69
2021/07/10 09:00:25;;;;;;;3.55;1.17;;;;;;;26.83;43.53;99868.72;5073216;28;20040;-69
2021/07/10 09:02:56;;;;;;;1.80;0.95;;;;;;;26.98;44.40;99857.25;5073561;28;20447;-69
2021/07/10 09:05:26;;;;;;;4.25;1.00;;;;;;;27.17;43.75;99860.34;5073029;28;20067;-70
2021/07/10 09:08:16;;;;;;;1.52;0.85;;;;;;;27.00;44.37;99852.75;5073215;28;20056;-70
2021/07/10 09:10:47;;;;;;;1.98;0.98;;;;;;;27.26;45.18;99864.97;5055769;28;20502;-69
2021/07/10 09:13:17;;;;;;;1.23;0.93;;;;;;;27.38;45.20;99864.19;5076726;28;20131;-69
2021/07/10 09:15:47;;;;;;;1.25;0.80;;;;;;;27.64;45.01;99855.41;5076936;28;20036;-70
2021/07/10 09:18:17;;;;;;;1.38;0.93;;;;;;;27.99;43.17;99854.78;5076580;28;20045;-69
2021/07/10 09:20:48;;;;;;;2.00;0.98;;;;;;;28.25;42.04;99854.69;5076645;28;20494;-72
2021/07/10 09:23:27;;;;;;;2.55;1.00;;;;;;;28.15;41.09;99856.25;5076345;28;20433;-71
2021/07/10 09:26:15;;;;;;;1.23;0.90;;;;;;;28.01;41.49;99855.53;5076643;28;20036;-70
2021/07/10 09:28:45;;;;;;;1.27;0.95;;;;;;;28.04;41.41;99852.72;5076088;28;20063;-69
2021/07/10 09:31:26;;;;;;;2.55;1.05;;;;;;;28.08;41.65;99849.75;5076229;28;20502;-70
2021/07/10 09:34:01;;;;;;;1.15;0.93;;;;;;;28.23;41.70;99842.59;5076518;28;20052;-70
2021/07/10 09:36:30;;;;;;;1.05;0.90;;;;;;;28.28;41.23;99840.50;5076202;28;20048;-69
2021/07/10 09:39:01;;;;;;;0.73;0.65;;;;;;;28.24;41.18;99831.16;5076383;28;20431;-70
2021/07/10 09:41:33;;;;;;;1.20;0.90;;;;;;;28.37;41.05;99840.69;5076408;28;20437;-70
2021/07/10 09:44:08;;;;;;;1.70;0.98;;;;;;;28.62;41.01;99839.78;5076143;28;20047;-71
2021/07/10 09:46:38;;;;;;;1.55;0.95;;;;;;;28.34;40.10;99834.78;5076562;28;20105;-69
2021/07/10 09:49:29;;;;;;;0.95;0.82;;;;;;;28.22;40.73;99830.44;5075907;28;20056;-70
2021/07/10 09:52:09;;;;;;;1.38;0.90;;;;;;;27.97;41.20;99838.31;5075862;28;20068;-71
2021/07/10 09:54:42;;;;;;;1.50;0.90;;;;;;;27.80;40.80;99829.81;5075867;28;20049;-69
2021/07/10 09:57:17;;;;;;;1.27;0.80;;;;;;;27.93;40.25;99830.63;5075969;28;20063;-70
2021/07/10 09:59:49;;;;;;;1.92;0.95;;;;;;;27.89;39.70;99823.94;5075648;28;20040;-69
2021/07/10 10:02:23;;;;;;;1.00;0.90;;;;;;;27.81;39.19;99817.56;5075740;28;20491;-69
2021/07/10 10:04:53;;;;;;;3.10;1.08;;;;;;;27.66;41.11;99822.06;5075552;28;20102;-72
2021/07/10 10:07:22;;;;;;;1.83;1.13;;;;;;;27.93;41.69;99814.91;5075551;28;20128;-69
2021/07/10 10:09:59;;;;;;;2.45;0.90;;;;;;;28.18;40.94;99813.19;5075470;28;20048;-69
2021/07/10 10:12:28;;;;;;;3.65;1.00;;;;;;;28.46;41.22;99818.16;5076117;28;20049;-70
2021/07/10 10:14:58;;;;;;;1.92;1.02;;;;;;;28.80;41.15;99820.03;5075368;28;20045;-69
2021/07/10 10:17:27;;;;;;;1.17;0.80;;;;;;;28.68;41.01;99814.84;5075335;28;20041;-69
2021/07/10 10:19:57;;;;;;;1.77;1.00;;;;;;;28.53;39.50;99814.13;5075385;28;20082;-69
2021/07/10 10:22:27;;;;;;;1.20;0.80;;;;;;;28.51;40.49;99816.88;5074303;28;20049;-69
2021/07/10 10:24:58;;;;;;;1.30;0.82;;;;;;;28.69;39.60;99809.50;5075157;28;20478;-69
2021/07/10 10:27:27;;;;;;;2.90;1.00;;;;;;;28.81;39.39;99802.50;5075395;28;20497;-69
2021/07/10 10:29:57;;;;;;;2.13;0.90;;;;;;;29.11;40.23;99801.03;5075337;28;20098;-70
2021/07/10 10:32:26;;;;;;;1.42;0.90;;;;;;;28.73;39.85;99799.59;5075036;28;20098;-69
2021/07/10 10:34:55;;;;;;;;;;;;;;;28.80;38.73;99796.41;5075444;28;20041;-70
2021/07/10 10:37:24;;;;;;;2.80;1.00;;;;;;;28.63;38.76;99788.91;5075465;28;20337;-69
2021/07/10 10:39:54;;;;;;;2.47;0.93;;;;;;;28.61;38.99;99790.81;5075439;28;20490;-70
2021/07/10 10:42:26;;;;;;;4.65;1.00;;;;;;;28.35;38.68;99789.22;5075446;28;20490;-69
2021/07/10 10:44:59;;;;;;;0.80;0.80;;;;;;;28.51;38.55;99800.28;5075074;28;20389;-70
2021/07/10 10:47:40;;;;;;;0.95;0.80;;;;;;;28.53;37.28;99779.97;5074805;28;20052;-71
2021/07/10 10:50:18;;;;;;;1.30;0.90;;;;;;;28.59;38.04;99782.19;5075056;28;20123;-69
2021/07/10 10:52:48;;;;;;;1.42;0.80;;;;;;;28.68;37.40;99778.91;5074952;28;20173;-69
2021/07/10 10:55:20;;;;;;;1.58;0.88;;;;;;;28.57;36.97;99773.56;5074669;28;20102;-70
2021/07/10 10:57:53;;;;;;;1.52;0.82;;;;;;;28.50;37.71;99777.59;5074773;28;20058;-71
2021/07/10 11:00:32;;;;;;;1.13;0.90;;;;;;;28.49;37.48;99770.66;5074907;28;20047;-70
2021/07/10 11:03:10;;;;;;;1.30;0.80;;;;;;;28.37;37.01;99764.50;5074552;28;20060;-70
2021/07/10 11:05:47;;;;;;;1.17;0.80;;;;;;;28.43;37.43;99756.19;5075556;28;20409;-69
2021/07/10 11:08:28;;;;;;;1.92;0.88;;;;;;;28.30;37.86;99752.78;5074964;28;20394;-69
2021/07/10 11:11:17;;;;;;;1.10;0.80;;;;;;;28.51;37.18;99753.00;5074296;28;20049;-71
2021/07/10 11:14:02;;;;;;;1.55;0.85;;;;;;;28.60;36.88;99759.41;5074707;28;20040;-69
2021/07/10 11:16:32;;;;;;;1.38;0.80;;;;;;;28.64;37.03;99748.56;5074480;28;20037;-69
2021/07/10 11:19:03;;;;;;;1.10;0.85;;;;;;;28.65;37.40;99750.22;5074092;28;20432;-69
2021/07/10 11:21:45;;;;;;;1.48;0.98;;;;;;;28.78;38.05;99743.13;5074133;28;20106;-70
2021/07/10 11:24:26;;;;;;;1.38;0.80;;;;;;;29.18;36.82;99744.44;5074045;28;20102;-69
2021/07/10 11:27:15;;;;;;;0.80;0.65;;;;;;;29.65;36.13;99739.94;5056380;28;20074;-70
2021/07/10 11:29:46;;;;;;;0.82;0.57;;;;;;;29.92;35.39;99739.59;5073950;28;20056;-70
2021/07/10 11:32:25;;;;;;;0.98;0.70;;;;;;;29.76;35.44;99729.41;5074181;28;20498;-69
2021/07/10 11:34:56;;;;;;;;;;;;;;;29.60;35.60;99735.03;5074686;28;20106;-69
2021/07/10 11:37:28;;;;;;;2.03;1.00;;;;;;;29.41;35.96;99723.44;5073871;28;19924;-69
2021/07/10 11:39:58;;;;;;;0.88;0.70;;;;;;;29.41;36.18;99723.44;5074129;28;20048;-70
2021/07/10 11:42:46;;;;;;;0.88;0.73;;;;;;;29.60;35.38;99718.41;5073844;28;20045;-69
2021/07/10 11:45:32;;;;;;;1.92;0.70;;;;;;;29.50;34.33;99715.66;5073659;28;20041;-70
2021/07/10 11:48:22;;;;;;;0.80;0.70;;;;;;;29.49;34.34;99713.97;5073731;28;20060;-69
2021/07/10 11:51:09;;;;;;;1.23;0.80;;;;;;;29.39;33.08;99717.47;5073708;28;20487;-69
2021/07/10 11:53:40;;;;;;;0.73;0.68;;;;;;;29.15;32.88;99707.81;5073585;28;20106;-70